Terminal Aerodrome Forecast
Issued by NWS

Home | Current Version | Previous Version | Text Only | Print | Product List | Glossary On
Versions: 1 2 3 4 5 6 7 8 9 10 11 12 13 14 15 16
498
FTUS43 KMPX 301412 AAB
TAFRWF
TAF AMD
KRWF 301412Z 3014/3112 30006KT P6SM BKN005 BKN015 BKN200
     FM301530 30007KT P6SM BKN020
     FM301600 33008KT P6SM SCT035
     FM301800 36007KT P6SM SCT250
     FM310100 34003KT P6SM SKC=

USA.gov is the U.S. government's official web portal to all federal, state and local government web resources and services.